Lavaca Bay — WDF2105 — position and weather

sailwx.info

Track history (hours):
 
Tides and Currents Weather Stations Pressure Air Temp Water Temp Dewpoint Dewpoint Depression Visibility Wind Speed Wind Dir Waves Ship Positions

Lavaca Bay

Owner: Higman Barge Lines, Inc, Orange, TX. More information available from US FCC via Universal Licensing System and Coast Guard Vessel Documentation Center.

Last reported at 2014-Dec-13 09:20 UTC. Time now 2014-Dec-22 22:47 UTC.
Position N 30°11' W 091°32'.
Warning: this ship's position is 9 days out of date.

Length 24 m; draft 3 m.

Type: Towing. MMSI: 367424940.

Date/timePositionNaut miles runAvg speedWind from/ knotsBaromVisibWave heightAir tempDewpointWater temp
2014-Dec-13 09:20N 30°11' W 091°32'15 5.1
2014-Dec-13 06:23N 29°56' W 091°28'5 6.6
2014-Dec-13 05:33N 29°51' W 091°25'5 5.4
2014-Dec-13 04:33N 29°47' W 091°21'4 4.2
2014-Dec-13 03:33N 29°46' W 091°17'4 4.1
2014-Dec-13 02:33N 29°43' W 091°13'4 4.3
2014-Dec-13 01:33N 29°39' W 091°15'5 4.8
2014-Dec-13 00:33N 29°38' W 091°21'5 4.8
2014-Dec-12 23:33N 29°40' W 091°26'5 5.4
2014-Dec-12 22:33N 29°42' W 091°31'7 5.3
2014-Dec-12 21:20N 29°46' W 091°38'  
2014-Dec-10 15:10N 29°40' W 094°15'3 3.6
2014-Dec-10 14:24N 29°38' W 094°18'31 1.9
2014-Dec-09 22:08N 29°24' W 094°49'5 8.0
2014-Dec-09 21:33N 29°28' W 094°51'9 8.5
2014-Dec-09 20:33N 29°35' W 094°56'7 7.4
2014-Dec-09 19:33N 29°42' W 095°00'6 6.0
2014-Dec-09 18:33N 29°46' W 095°06'1 0.5
2014-Dec-09 17:33N 29°45' W 095°06'1 1.1
2014-Dec-09 16:33N 29°45' W 095°07'0 0.5
2014-Dec-09 15:33N 29°45' W 095°06'2 2.0
2014-Dec-09 14:33N 29°47' W 095°06'0 0.0
2014-Dec-09 13:33N 29°47' W 095°06'0 0.0
2014-Dec-09 12:33N 29°47' W 095°06'0 0.0
2014-Dec-09 11:33N 29°47' W 095°06'0 0.0
2014-Dec-09 10:33N 29°47' W 095°06'0 0.2
2014-Dec-09 09:33N 29°47' W 095°06'2 1.9
2014-Dec-09 08:33N 29°45' W 095°06'0 0.0
2014-Dec-09 07:33N 29°45' W 095°06'0 0.0
2014-Dec-09 06:33N 29°45' W 095°06'0 0.0
2014-Dec-09 05:33N 29°45' W 095°06'0 0.0
2014-Dec-09 04:33N 29°45' W 095°06'0 0.0
2014-Dec-09 03:33N 29°45' W 095°06'0 0.0
2014-Dec-09 02:33N 29°45' W 095°06'0 0.0
2014-Dec-09 01:33N 29°45' W 095°06'0 0.0
2014-Dec-09 00:33N 29°45' W 095°06'0 0.0
2014-Dec-08 23:33N 29°45' W 095°06'0 0.0
2014-Dec-08 22:33N 29°45' W 095°06'0 0.0
2014-Dec-08 21:33N 29°45' W 095°06'0 0.0
2014-Dec-08 20:33N 29°45' W 095°06'0 0.0
2014-Dec-08 19:33N 29°45' W 095°06'0 0.0
2014-Dec-08 18:33N 29°45' W 095°06'0 0.0
2014-Dec-08 17:33N 29°45' W 095°06'0 0.0
2014-Dec-08 16:33N 29°45' W 095°06'0 0.0
2014-Dec-08 15:33N 29°45' W 095°06'0 0.0
2014-Dec-08 14:33N 29°45' W 095°06'0 0.0
2014-Dec-08 13:33N 29°45' W 095°06'0 0.0
2014-Dec-08 12:33N 29°45' W 095°06'0 0.0
2014-Dec-08 11:33N 29°45' W 095°06'0 0.0
2014-Dec-08 10:33N 29°45' W 095°06'0 0.0
2014-Dec-08 09:33N 29°45' W 095°06'0 0.0
2014-Dec-08 08:33N 29°45' W 095°06'0 0.0
2014-Dec-08 07:33N 29°45' W 095°06'0 0.0
2014-Dec-08 06:33N 29°45' W 095°06'0 0.0
2014-Dec-08 05:33N 29°45' W 095°06'0 0.0
2014-Dec-08 04:33N 29°45' W 095°06'0 0.0
2014-Dec-08 03:33N 29°45' W 095°06'0 0.0
2014-Dec-08 02:33N 29°45' W 095°06'0 0.0
2014-Dec-08 01:33N 29°45' W 095°06'0 0.0
2014-Dec-08 00:33N 29°45' W 095°06'0 0.0
2014-Dec-07 23:33N 29°45' W 095°06'0 0.0
2014-Dec-07 22:33N 29°45' W 095°06'0 0.0
2014-Dec-07 21:33N 29°45' W 095°06'0 0.0
2014-Dec-07 20:33N 29°45' W 095°06'0 0.0
2014-Dec-07 19:33N 29°45' W 095°06'0 0.0
2014-Dec-07 18:33N 29°45' W 095°06'0 0.0
2014-Dec-07 17:33N 29°45' W 095°06'0 0.0
2014-Dec-07 16:33N 29°45' W 095°06'0 0.0
2014-Dec-07 13:33N 29°45' W 095°06'0 0.0
2014-Dec-07 06:22N 29°45' W 095°06'0 0.0
2014-Dec-07 05:33N 29°45' W 095°06'0 0.0
2014-Dec-07 04:33N 29°45' W 095°06'0 0.0
2014-Dec-07 03:33N 29°45' W 095°06'0 0.1
2014-Dec-07 02:33N 29°45' W 095°06'0 0.0
2014-Dec-07 01:33N 29°45' W 095°06'0 0.0
2014-Dec-07 00:33N 29°45' W 095°06'0 0.0
2014-Dec-06 23:33N 29°45' W 095°06'2 2.2
2014-Dec-06 22:33N 29°47' W 095°05'0 0.0
2014-Dec-06 21:33N 29°47' W 095°05'1 0.8
2014-Dec-06 20:34N 29°46' W 095°05'1 0.9
2014-Dec-06 19:33N 29°46' W 095°06'0 0.0
2014-Dec-06 18:33N 29°46' W 095°06'2 1.6
2014-Dec-06 17:33N 29°47' W 095°05'0 0.0
2014-Dec-06 16:33N 29°47' W 095°05'0 0.0
2014-Dec-06 15:33N 29°47' W 095°05'0 0.0
2014-Dec-06 14:33N 29°47' W 095°05'0 0.0
2014-Dec-06 13:33N 29°47' W 095°05'0 0.0
2014-Dec-06 12:33N 29°47' W 095°05'0 0.0
2014-Dec-06 11:33N 29°47' W 095°05'0 0.0
2014-Dec-06 10:33N 29°47' W 095°05'0 0.0
2014-Dec-06 09:33N 29°47' W 095°05'0 0.0
2014-Dec-06 08:33N 29°47' W 095°05'0 0.0
2014-Dec-06 07:33N 29°47' W 095°05'0 0.0
2014-Dec-06 06:33N 29°47' W 095°05'0 0.0
2014-Dec-06 05:33N 29°47' W 095°05'0 0.0
2014-Dec-06 04:33N 29°47' W 095°05'0 0.0
2014-Dec-06 03:33N 29°47' W 095°05'0 0.0
2014-Dec-06 02:33N 29°47' W 095°05'0 0.0
2014-Dec-06 01:33N 29°47' W 095°05'0 0.0
2014-Dec-06 00:33N 29°47' W 095°05'0 0.0
2014-Dec-05 23:33N 29°47' W 095°05'0 0.0
2014-Dec-05 22:33N 29°47' W 095°05'0 0.0
2014-Dec-05 21:33N 29°47' W 095°05'0 0.0
2014-Dec-05 20:33N 29°47' W 095°05'0 0.0
2014-Dec-05 19:33N 29°47' W 095°05'0 0.0
2014-Dec-05 18:33N 29°47' W 095°05'0 0.0
2014-Dec-05 17:33N 29°47' W 095°05'0 0.0
2014-Dec-05 16:33N 29°47' W 095°05'0 0.0
2014-Dec-05 15:33N 29°47' W 095°05'0 0.0
2014-Dec-05 14:33N 29°47' W 095°05'0 0.0
2014-Dec-05 13:33N 29°47' W 095°05'0 0.0
2014-Dec-05 12:06N 29°47' W 095°05'0 0.0
2014-Dec-05 11:30N 29°47' W 095°05'0 0.0
2014-Dec-05 09:32N 29°47' W 095°05'0 0.0
2014-Dec-05 08:32N 29°47' W 095°05'0 0.0
2014-Dec-05 07:33N 29°47' W 095°05'0 0.0
2014-Dec-05 06:24N 29°47' W 095°05'0 0.0
2014-Dec-05 05:33N 29°47' W 095°05'0 0.0
2014-Dec-05 04:32N 29°47' W 095°05'0 0.0
2014-Dec-05 03:33N 29°47' W 095°05'0 0.0
2014-Dec-05 02:30N 29°47' W 095°05'0 0.0
2014-Dec-05 01:32N 29°47' W 095°05'0 0.0
2014-Dec-05 00:32N 29°47' W 095°05'0 0.0
2014-Dec-04 23:33N 29°47' W 095°05'0 0.0
2014-Dec-04 22:33N 29°47' W 095°05'0 0.1
2014-Dec-04 21:33N 29°47' W 095°05'0 0.3
2014-Dec-04 20:33N 29°46' W 095°05'3 2.7
2014-Dec-04 19:33N 29°44' W 095°03'0 0.0
2014-Dec-04 18:33N 29°44' W 095°03'0 0.0
2014-Dec-04 17:33N 29°44' W 095°03'0 0.0
2014-Dec-04 16:33N 29°44' W 095°03'0 0.0
2014-Dec-04 15:33N 29°44' W 095°03'0 0.0
2014-Dec-04 14:33N 29°44' W 095°03'0 0.0
2014-Dec-04 13:33N 29°44' W 095°03'0 0.0
2014-Dec-04 12:28N 29°44' W 095°03'0 0.0
2014-Dec-04 11:32N 29°44' W 095°03'0 0.0
2014-Dec-04 10:31N 29°44' W 095°03'0 0.0
2014-Dec-04 09:25N 29°44' W 095°03'0 0.0
2014-Dec-04 02:03N 29°44' W 095°03'3 4.4
2014-Dec-04 01:27N 29°46' W 095°05'0 0.2
2014-Dec-03 23:17N 29°46' W 095°05'0 0.0
2014-Dec-03 22:33N 29°46' W 095°05'0 0.0
2014-Dec-03 21:33N 29°46' W 095°05'0 0.0
2014-Dec-03 20:29N 29°46' W 095°05'0 0.0
2014-Dec-03 19:33N 29°46' W 095°05'0 0.0
2014-Dec-03 18:31N 29°46' W 095°05'0 0.0
2014-Dec-03 17:30N 29°46' W 095°05'0 0.0
2014-Dec-03 16:33N 29°46' W 095°05'0 0.0
2014-Dec-03 15:33N 29°46' W 095°05'0 0.0
2014-Dec-03 14:33N 29°46' W 095°05'0 0.0
2014-Dec-03 13:33N 29°46' W 095°05'0 0.0
2014-Dec-03 12:28N 29°46' W 095°05'0 0.0
2014-Dec-03 11:32N 29°46' W 095°05'  
Track history (hours):
 
Tides and Currents Weather Stations Pressure Air Temp Water Temp Dewpoint Dewpoint Depression Visibility Wind Speed Wind Dir Waves Ship Positions

Lavaca Bay

Owner: Higman Barge Lines, Inc, Orange, TX. More information available from US FCC via Universal Licensing System and Coast Guard Vessel Documentation Center.

Last reported at 2014-Dec-13 09:20 UTC. Time now 2014-Dec-22 22:47 UTC.
Position N 30°11' W 091°32'.
Warning: this ship's position is 9 days out of date.

Length 24 m; draft 3 m.

Type: Towing. MMSI: 367424940.

Date/timePositionNaut miles runAvg speedWind from/ knotsBaromVisibWave heightAir tempDewpointWater temp
2014-Dec-13 09:20N 30°11' W 091°32'15 5.1
2014-Dec-13 06:23N 29°56' W 091°28'5 6.6
2014-Dec-13 05:33N 29°51' W 091°25'5 5.4
2014-Dec-13 04:33N 29°47' W 091°21'4 4.2
2014-Dec-13 03:33N 29°46' W 091°17'4 4.1
2014-Dec-13 02:33N 29°43' W 091°13'4 4.3
2014-Dec-13 01:33N 29°39' W 091°15'5 4.8
2014-Dec-13 00:33N 29°38' W 091°21'5 4.8
2014-Dec-12 23:33N 29°40' W 091°26'5 5.4
2014-Dec-12 22:33N 29°42' W 091°31'7 5.3
2014-Dec-12 21:20N 29°46' W 091°38'  
2014-Dec-10 15:10N 29°40' W 094°15'3 3.6
2014-Dec-10 14:24N 29°38' W 094°18'31 1.9
2014-Dec-09 22:08N 29°24' W 094°49'5 8.0
2014-Dec-09 21:33N 29°28' W 094°51'9 8.5
2014-Dec-09 20:33N 29°35' W 094°56'7 7.4
2014-Dec-09 19:33N 29°42' W 095°00'6 6.0
2014-Dec-09 18:33N 29°46' W 095°06'1 0.5
2014-Dec-09 17:33N 29°45' W 095°06'1 1.1
2014-Dec-09 16:33N 29°45' W 095°07'0 0.5
2014-Dec-09 15:33N 29°45' W 095°06'2 2.0
2014-Dec-09 14:33N 29°47' W 095°06'0 0.0
2014-Dec-09 13:33N 29°47' W 095°06'0 0.0
2014-Dec-09 12:33N 29°47' W 095°06'0 0.0
2014-Dec-09 11:33N 29°47' W 095°06'0 0.0
2014-Dec-09 10:33N 29°47' W 095°06'0 0.2
2014-Dec-09 09:33N 29°47' W 095°06'2 1.9
2014-Dec-09 08:33N 29°45' W 095°06'0 0.0
2014-Dec-09 07:33N 29°45' W 095°06'0 0.0
2014-Dec-09 06:33N 29°45' W 095°06'0 0.0
2014-Dec-09 05:33N 29°45' W 095°06'0 0.0
2014-Dec-09 04:33N 29°45' W 095°06'0 0.0
2014-Dec-09 03:33N 29°45' W 095°06'0 0.0
2014-Dec-09 02:33N 29°45' W 095°06'0 0.0
2014-Dec-09 01:33N 29°45' W 095°06'0 0.0
2014-Dec-09 00:33N 29°45' W 095°06'0 0.0
2014-Dec-08 23:33N 29°45' W 095°06'0 0.0
2014-Dec-08 22:33N 29°45' W 095°06'0 0.0
2014-Dec-08 21:33N 29°45' W 095°06'0 0.0
2014-Dec-08 20:33N 29°45' W 095°06'0 0.0
2014-Dec-08 19:33N 29°45' W 095°06'0 0.0
2014-Dec-08 18:33N 29°45' W 095°06'0 0.0
2014-Dec-08 17:33N 29°45' W 095°06'0 0.0
2014-Dec-08 16:33N 29°45' W 095°06'0 0.0
2014-Dec-08 15:33N 29°45' W 095°06'0 0.0
2014-Dec-08 14:33N 29°45' W 095°06'0 0.0
2014-Dec-08 13:33N 29°45' W 095°06'0 0.0
2014-Dec-08 12:33N 29°45' W 095°06'0 0.0
2014-Dec-08 11:33N 29°45' W 095°06'0 0.0
2014-Dec-08 10:33N 29°45' W 095°06'0 0.0
2014-Dec-08 09:33N 29°45' W 095°06'0 0.0
2014-Dec-08 08:33N 29°45' W 095°06'0 0.0
2014-Dec-08 07:33N 29°45' W 095°06'0 0.0
2014-Dec-08 06:33N 29°45' W 095°06'0 0.0
2014-Dec-08 05:33N 29°45' W 095°06'0 0.0
2014-Dec-08 04:33N 29°45' W 095°06'0 0.0
2014-Dec-08 03:33N 29°45' W 095°06'0 0.0
2014-Dec-08 02:33N 29°45' W 095°06'0 0.0
2014-Dec-08 01:33N 29°45' W 095°06'0 0.0
2014-Dec-08 00:33N 29°45' W 095°06'0 0.0
2014-Dec-07 23:33N 29°45' W 095°06'0 0.0
2014-Dec-07 22:33N 29°45' W 095°06'0 0.0
2014-Dec-07 21:33N 29°45' W 095°06'0 0.0
2014-Dec-07 20:33N 29°45' W 095°06'0 0.0
2014-Dec-07 19:33N 29°45' W 095°06'0 0.0
2014-Dec-07 18:33N 29°45' W 095°06'0 0.0
2014-Dec-07 17:33N 29°45' W 095°06'0 0.0
2014-Dec-07 16:33N 29°45' W 095°06'0 0.0
2014-Dec-07 13:33N 29°45' W 095°06'0 0.0
2014-Dec-07 06:22N 29°45' W 095°06'0 0.0
2014-Dec-07 05:33N 29°45' W 095°06'0 0.0
2014-Dec-07 04:33N 29°45' W 095°06'0 0.0
2014-Dec-07 03:33N 29°45' W 095°06'0 0.1
2014-Dec-07 02:33N 29°45' W 095°06'0 0.0
2014-Dec-07 01:33N 29°45' W 095°06'0 0.0
2014-Dec-07 00:33N 29°45' W 095°06'0 0.0
2014-Dec-06 23:33N 29°45' W 095°06'2 2.2
2014-Dec-06 22:33N 29°47' W 095°05'0 0.0
2014-Dec-06 21:33N 29°47' W 095°05'1 0.8
2014-Dec-06 20:34N 29°46' W 095°05'1 0.9
2014-Dec-06 19:33N 29°46' W 095°06'0 0.0
2014-Dec-06 18:33N 29°46' W 095°06'2 1.6
2014-Dec-06 17:33N 29°47' W 095°05'0 0.0
2014-Dec-06 16:33N 29°47' W 095°05'0 0.0
2014-Dec-06 15:33N 29°47' W 095°05'0 0.0
2014-Dec-06 14:33N 29°47' W 095°05'0 0.0
2014-Dec-06 13:33N 29°47' W 095°05'0 0.0
2014-Dec-06 12:33N 29°47' W 095°05'0 0.0
2014-Dec-06 11:33N 29°47' W 095°05'0 0.0
2014-Dec-06 10:33N 29°47' W 095°05'0 0.0
2014-Dec-06 09:33N 29°47' W 095°05'0 0.0
2014-Dec-06 08:33N 29°47' W 095°05'0 0.0
2014-Dec-06 07:33N 29°47' W 095°05'0 0.0
2014-Dec-06 06:33N 29°47' W 095°05'0 0.0
2014-Dec-06 05:33N 29°47' W 095°05'0 0.0
2014-Dec-06 04:33N 29°47' W 095°05'0 0.0
2014-Dec-06 03:33N 29°47' W 095°05'0 0.0
2014-Dec-06 02:33N 29°47' W 095°05'0 0.0
2014-Dec-06 01:33N 29°47' W 095°05'0 0.0
2014-Dec-06 00:33N 29°47' W 095°05'0 0.0
2014-Dec-05 23:33N 29°47' W 095°05'0 0.0
2014-Dec-05 22:33N 29°47' W 095°05'0 0.0
2014-Dec-05 21:33N 29°47' W 095°05'0 0.0
2014-Dec-05 20:33N 29°47' W 095°05'0 0.0
2014-Dec-05 19:33N 29°47' W 095°05'0 0.0
2014-Dec-05 18:33N 29°47' W 095°05'0 0.0
2014-Dec-05 17:33N 29°47' W 095°05'0 0.0
2014-Dec-05 16:33N 29°47' W 095°05'0 0.0
2014-Dec-05 15:33N 29°47' W 095°05'0 0.0
2014-Dec-05 14:33N 29°47' W 095°05'0 0.0
2014-Dec-05 13:33N 29°47' W 095°05'0 0.0
2014-Dec-05 12:06N 29°47' W 095°05'0 0.0
2014-Dec-05 11:30N 29°47' W 095°05'0 0.0
2014-Dec-05 09:32N 29°47' W 095°05'0 0.0
2014-Dec-05 08:32N 29°47' W 095°05'0 0.0
2014-Dec-05 07:33N 29°47' W 095°05'0 0.0
2014-Dec-05 06:24N 29°47' W 095°05'0 0.0
2014-Dec-05 05:33N 29°47' W 095°05'0 0.0
2014-Dec-05 04:32N 29°47' W 095°05'0 0.0
2014-Dec-05 03:33N 29°47' W 095°05'0 0.0
2014-Dec-05 02:30N 29°47' W 095°05'0 0.0
2014-Dec-05 01:32N 29°47' W 095°05'0 0.0
2014-Dec-05 00:32N 29°47' W 095°05'0 0.0
2014-Dec-04 23:33N 29°47' W 095°05'0 0.0
2014-Dec-04 22:33N 29°47' W 095°05'0 0.1
2014-Dec-04 21:33N 29°47' W 095°05'0 0.3
2014-Dec-04 20:33N 29°46' W 095°05'3 2.7
2014-Dec-04 19:33N 29°44' W 095°03'0 0.0
2014-Dec-04 18:33N 29°44' W 095°03'0 0.0
2014-Dec-04 17:33N 29°44' W 095°03'0 0.0
2014-Dec-04 16:33N 29°44' W 095°03'0 0.0
2014-Dec-04 15:33N 29°44' W 095°03'0 0.0
2014-Dec-04 14:33N 29°44' W 095°03'0 0.0
2014-Dec-04 13:33N 29°44' W 095°03'0 0.0
2014-Dec-04 12:28N 29°44' W 095°03'0 0.0
2014-Dec-04 11:32N 29°44' W 095°03'0 0.0
2014-Dec-04 10:31N 29°44' W 095°03'0 0.0
2014-Dec-04 09:25N 29°44' W 095°03'0 0.0
2014-Dec-04 02:03N 29°44' W 095°03'3 4.4
2014-Dec-04 01:27N 29°46' W 095°05'0 0.2
2014-Dec-03 23:17N 29°46' W 095°05'0 0.0
2014-Dec-03 22:33N 29°46' W 095°05'0 0.0
2014-Dec-03 21:33N 29°46' W 095°05'0 0.0
2014-Dec-03 20:29N 29°46' W 095°05'0 0.0
2014-Dec-03 19:33N 29°46' W 095°05'0 0.0
2014-Dec-03 18:31N 29°46' W 095°05'0 0.0
2014-Dec-03 17:30N 29°46' W 095°05'0 0.0
2014-Dec-03 16:33N 29°46' W 095°05'0 0.0
2014-Dec-03 15:33N 29°46' W 095°05'0 0.0
2014-Dec-03 14:33N 29°46' W 095°05'0 0.0
2014-Dec-03 13:33N 29°46' W 095°05'0 0.0
2014-Dec-03 12:28N 29°46' W 095°05'0 0.0
2014-Dec-03 11:32N 29°46' W 095°05'  

Dump ship's entire track history